Time;durP1;ratioP1;P1;durP2;ratioP2;P2;SDS_P1;SDS_P2;PMS_P1;PMS_P2;Temp;Humidity;BMP_temperature;BMP_pressure;BME280_temperature;BME280_humidity;BME280_pressure;Samples;Min_cycle;Max_cycle;Signal;HPM_P1;HPM_P2
2021/01/04 00:02:15;;;;;;;12.55;8.15;;;;;;;;;;5003292;28;20045;-65
2021/01/04 00:05:05;;;;;;;10.10;8.57;;;;;;;;;;5002640;28;20030;-65
2021/01/04 00:07:43;;;;;;;11.45;8.30;;;;;;;;;;4997816;28;20108;-65
2021/01/04 00:10:23;;;;;;;10.73;8.98;;;;;;;;;;5004444;28;20528;-65
2021/01/04 00:13:25;;;;;;;10.25;8.50;;;;;;;;;;5002314;28;20030;-65
2021/01/04 00:16:05;;;;;;;12.93;9.15;;;;;;;;;;5001882;28;20042;-65
2021/01/04 00:18:42;;;;;;;10.40;8.63;;;;;;;;;;4999015;28;20038;-65
2021/01/04 00:21:36;;;;;;;10.18;8.90;;;;;;;;;;5003222;28;20529;-65
2021/01/04 00:24:08;;;;;;;12.02;8.82;;;;;;;;;;5001880;28;20072;-65
2021/01/04 00:26:53;;;;;;;;;;;;;;;;;;4999636;28;20063;-65
2021/01/04 00:29:21;;;;;;;14.63;9.60;;;;;;;;;;5001034;28;19944;-65
2021/01/04 00:31:52;;;;;;;12.38;9.18;;;;;;;;;;5001221;28;20413;-65
2021/01/04 00:34:21;;;;;;;11.27;9.20;;;;;;;;;;4999983;28;20049;-66
2021/01/04 00:36:58;;;;;;;12.35;9.32;;;;;;;;;;5002202;28;20022;-65
2021/01/04 00:39:47;;;;;;;11.38;9.13;;;;;;;;;;5000600;28;20049;-65
2021/01/04 00:42:32;;;;;;;11.82;9.30;;;;;;;;;;5001693;28;20048;-65
2021/01/04 00:45:15;;;;;;;10.35;8.70;;;;;;;;;;5002592;28;20041;-66
2021/01/04 00:47:50;;;;;;;11.70;9.40;;;;;;;;;;5001357;28;20046;-65
2021/01/04 00:50:26;;;;;;;13.40;9.38;;;;;;;;;;5001129;28;20108;-65
2021/01/04 00:53:02;;;;;;;13.80;10.32;;;;;;;;;;5003275;28;20025;-65
2021/01/04 00:55:38;;;;;;;10.52;9.15;;;;;;;;;;5000707;28;20030;-65
2021/01/04 00:58:36;;;;;;;11.50;8.98;;;;;;;;;;5001705;28;20037;-65
2021/01/04 01:01:15;;;;;;;13.05;9.57;;;;;;;;;;4971904;28;20065;-65
2021/01/04 01:03:46;;;;;;;12.10;9.57;;;;;;;;;;5002469;28;20169;-65
2021/01/04 01:06:23;;;;;;;;;;;;;;;;;;5000214;28;20084;-66
2021/01/04 01:08:53;;;;;;;12.45;9.48;;;;;;;;;;5000869;28;19913;-65
2021/01/04 01:11:31;;;;;;;13.60;10.00;;;;;;;;;;5001737;28;20061;-65
2021/01/04 01:14:04;;;;;;;15.63;10.10;;;;;;;;;;4998492;28;20053;-66
2021/01/04 01:16:56;;;;;;;13.90;8.73;;;;;;;;;;4999635;28;20061;-66
2021/01/04 01:19:43;;;;;;;11.23;9.88;;;;;;;;;;5000209;28;20401;-65
2021/01/04 01:22:18;;;;;;;12.13;9.80;;;;;;;;;;4999065;28;20701;-65
2021/01/04 01:24:44;;;;;;;20.13;9.77;;;;;;;;;;4999885;28;20050;-66
2021/01/04 01:27:28;;;;;;;11.75;9.52;;;;;;;;;;5001881;28;20041;-66
2021/01/04 01:30:05;;;;;;;12.23;9.73;;;;;;;;;;5002118;28;20030;-66
2021/01/04 01:32:45;;;;;;;12.25;9.57;;;;;;;;;;4999251;28;20037;-66
2021/01/04 01:35:37;;;;;;;14.73;9.88;;;;;;;;;;5001739;28;20048;-66
2021/01/04 01:38:27;;;;;;;12.15;10.07;;;;;;;;;;5001098;28;20029;-66
2021/01/04 01:41:17;;;;;;;12.68;10.30;;;;;;;;;;5000275;28;20022;-65
2021/01/04 01:44:07;;;;;;;12.30;10.20;;;;;;;;;;5001680;28;20040;-65
2021/01/04 01:46:38;;;;;;;11.75;9.70;;;;;;;;;;4997295;28;20034;-65
2021/01/04 01:49:22;;;;;;;12.48;9.48;;;;;;;;;;5001274;28;20089;-65
2021/01/04 01:52:09;;;;;;;13.75;10.43;;;;;;;;;;5000331;28;20046;-65
2021/01/04 01:54:56;;;;;;;10.88;9.25;;;;;;;;;;4999042;28;20038;-65
2021/01/04 01:57:55;;;;;;;13.18;10.15;;;;;;;;;;4997879;28;20058;-65
2021/01/04 02:00:29;;;;;;;12.05;9.95;;;;;;;;;;4984346;28;20045;-65
2021/01/04 02:03:15;;;;;;;12.23;10.05;;;;;;;;;;4999055;28;20026;-65
2021/01/04 02:05:59;;;;;;;11.20;9.50;;;;;;;;;;4998686;28;20037;-65
2021/01/04 02:08:28;;;;;;;12.88;10.32;;;;;;;;;;4999384;28;20042;-65
2021/01/04 02:11:01;;;;;;;12.40;11.00;;;;;;;;;;5002905;28;20030;-65
2021/01/04 02:13:31;;;;;;;12.07;9.55;;;;;;;;;;4996299;28;20038;-65
2021/01/04 02:15:58;;;;;;;12.75;9.60;;;;;;;;;;5000467;28;20088;-65
2021/01/04 02:18:49;;;;;;;12.02;9.63;;;;;;;;;;4998339;28;20113;-65
2021/01/04 02:21:39;;;;;;;12.63;10.20;;;;;;;;;;4998071;28;20069;-65
2021/01/04 02:24:04;;;;;;;13.23;10.68;;;;;;;;;;5000936;28;20046;-65
2021/01/04 02:26:31;;;;;;;14.45;10.48;;;;;;;;;;4998955;28;20049;-65
2021/01/04 02:29:06;;;;;;;12.55;10.18;;;;;;;;;;5001773;28;20489;-65
2021/01/04 02:31:35;;;;;;;12.07;10.05;;;;;;;;;;4994977;28;20038;-65
2021/01/04 02:34:03;;;;;;;13.32;10.38;;;;;;;;;;5001275;28;20084;-66
2021/01/04 02:36:31;;;;;;;16.17;12.10;;;;;;;;;;4997717;28;20030;-65
2021/01/04 02:39:14;;;;;;;13.55;10.95;;;;;;;;;;4998563;28;20615;-65
2021/01/04 02:41:52;;;;;;;14.13;11.30;;;;;;;;;;4997491;28;20355;-65
2021/01/04 02:44:18;;;;;;;12.35;10.43;;;;;;;;;;4999980;28;20064;-65
2021/01/04 02:46:45;;;;;;;14.93;10.80;;;;;;;;;;4998768;28;20101;-65
2021/01/04 02:49:30;;;;;;;13.00;10.50;;;;;;;;;;4999810;28;20049;-65
2021/01/04 02:52:06;;;;;;;15.07;11.00;;;;;;;;;;5000306;28;20556;-65
2021/01/04 02:54:38;;;;;;;13.05;10.43;;;;;;;;;;4997313;28;20104;-66
2021/01/04 02:57:36;;;;;;;12.38;10.82;;;;;;;;;;4999869;28;20069;-65
2021/01/04 03:00:12;;;;;;;11.90;10.45;;;;;;;;;;4993401;28;20050;-65
2021/01/04 03:02:42;;;;;;;12.10;10.15;;;;;;;;;;4998425;28;20088;-65
2021/01/04 03:05:11;;;;;;;12.00;10.77;;;;;;;;;;4999627;28;20469;-65
2021/01/04 03:07:37;;;;;;;11.38;10.00;;;;;;;;;;4998083;28;20038;-65
2021/01/04 03:10:15;;;;;;;12.00;10.32;;;;;;;;;;4999580;28;20462;-65
2021/01/04 03:12:40;;;;;;;13.90;10.65;;;;;;;;;;4996811;28;20019;-65
2021/01/04 03:15:22;;;;;;;13.60;10.65;;;;;;;;;;5000228;28;20354;-65
2021/01/04 03:18:09;;;;;;;14.40;11.30;;;;;;;;;;4998448;28;20049;-65
2021/01/04 03:20:35;;;;;;;13.77;10.90;;;;;;;;;;4997042;28;20069;-65
2021/01/04 03:23:00;;;;;;;17.75;11.25;;;;;;;;;;5000128;28;20123;-65
2021/01/04 03:25:58;;;;;;;16.13;10.27;;;;;;;;;;4998949;28;20041;-64
2021/01/04 03:28:28;;;;;;;11.52;10.25;;;;;;;;;;4983127;28;20038;-65
2021/01/04 03:30:54;;;;;;;12.52;10.15;;;;;;;;;;5000082;28;20034;-64
2021/01/04 03:33:19;;;;;;;13.52;12.02;;;;;;;;;;4998943;28;20103;-65
2021/01/04 03:35:46;;;;;;;20.73;10.63;;;;;;;;;;4998057;28;20046;-64
2021/01/04 03:38:11;;;;;;;14.90;11.38;;;;;;;;;;5000122;28;20033;-65
2021/01/04 03:40:37;;;;;;;12.82;11.23;;;;;;;;;;4998421;28;20105;-65
2021/01/04 03:43:03;;;;;;;13.63;10.82;;;;;;;;;;4999080;28;20084;-65
2021/01/04 03:45:28;;;;;;;14.07;11.82;;;;;;;;;;4995192;28;20038;-64
2021/01/04 03:47:54;;;;;;;14.52;11.95;;;;;;;;;;4999771;28;20036;-65
2021/01/04 03:50:19;;;;;;;13.45;11.02;;;;;;;;;;4995962;28;20033;-65
2021/01/04 03:52:45;;;;;;;15.15;11.77;;;;;;;;;;4998339;28;20026;-64
2021/01/04 03:55:11;;;;;;;14.20;12.23;;;;;;;;;;4999469;28;20037;-64
2021/01/04 03:57:37;;;;;;;16.40;11.43;;;;;;;;;;4993254;28;20030;-65
2021/01/04 04:00:06;;;;;;;12.80;11.38;;;;;;;;;;4997821;28;20472;-64
2021/01/04 04:02:31;;;;;;;14.75;11.32;;;;;;;;;;4995315;28;20484;-65
2021/01/04 04:04:56;;;;;;;15.75;11.70;;;;;;;;;;4999512;28;20033;-65
2021/01/04 04:07:21;;;;;;;15.45;12.00;;;;;;;;;;4994376;28;20030;-65
2021/01/04 04:09:47;;;;;;;13.23;11.82;;;;;;;;;;4997966;28;20038;-65
2021/01/04 04:12:13;;;;;;;17.02;11.88;;;;;;;;;;4998822;28;20045;-65
2021/01/04 04:14:38;;;;;;;18.80;13.65;;;;;;;;;;4997759;28;20113;-65
2021/01/04 04:17:03;;;;;;;15.57;12.30;;;;;;;;;;4998714;28;20161;-65
2021/01/04 04:19:29;;;;;;;15.07;12.05;;;;;;;;;;4996875;28;20088;-65
2021/01/04 04:21:54;;;;;;;15.18;11.88;;;;;;;;;;4997209;28;20139;-65
2021/01/04 04:24:20;;;;;;;13.27;11.45;;;;;;;;;;4997728;28;20161;-65
2021/01/04 04:26:46;;;;;;;18.92;12.13;;;;;;;;;;4997181;28;20033;-65
2021/01/04 04:29:12;;;;;;;15.68;11.27;;;;;;;;;;4999583;28;20041;-65
2021/01/04 04:31:48;;;;;;;14.18;12.55;;;;;;;;;;4996815;28;20042;-65
2021/01/04 04:34:15;;;;;;;14.82;12.48;;;;;;;;;;4998162;28;20041;-65
2021/01/04 04:36:42;;;;;;;14.73;12.52;;;;;;;;;;4996661;28;20028;-65
2021/01/04 04:39:12;;;;;;;14.80;11.52;;;;;;;;;;4999200;28;20544;-65
2021/01/04 04:41:46;;;;;;;13.27;11.55;;;;;;;;;;4996622;28;20042;-65
2021/01/04 04:44:24;;;;;;;15.88;12.73;;;;;;;;;;4999609;28;20465;-65
2021/01/04 04:47:06;;;;;;;15.63;12.77;;;;;;;;;;5002275;28;20042;-65
2021/01/04 04:49:56;;;;;;;20.20;13.35;;;;;;;;;;4999620;28;20218;-65
2021/01/04 04:52:46;;;;;;;17.60;13.00;;;;;;;;;;5000447;28;20038;-65
2021/01/04 04:55:23;;;;;;;15.93;13.35;;;;;;;;;;5003008;28;20044;-65
2021/01/04 04:58:03;;;;;;;16.10;13.88;;;;;;;;;;5002768;28;20061;-65
2021/01/04 05:00:48;;;;;;;14.85;12.38;;;;;;;;;;5001635;28;20046;-65
2021/01/04 05:03:25;;;;;;;17.10;11.93;;;;;;;;;;4999712;28;20048;-65
2021/01/04 05:06:19;;;;;;;16.80;13.20;;;;;;;;;;5002636;28;20021;-65
2021/01/04 05:09:14;;;;;;;15.35;12.45;;;;;;;;;;5001111;28;20117;-65
2021/01/04 05:11:43;;;;;;;17.13;12.57;;;;;;;;;;4999189;28;20022;-65
2021/01/04 05:14:17;;;;;;;17.95;13.75;;;;;;;;;;5002362;28;20108;-65
2021/01/04 05:17:13;;;;;;;15.63;12.50;;;;;;;;;;5000586;28;20053;-65
2021/01/04 05:20:00;;;;;;;18.10;12.95;;;;;;;;;;4999090;28;20046;-65
2021/01/04 05:22:31;;;;;;;17.08;12.55;;;;;;;;;;4999648;28;20092;-65
2021/01/04 05:25:23;;;;;;;;;;;;;;;;;;5000031;28;20034;-65
2021/01/04 05:28:13;;;;;;;14.95;11.85;;;;;;;;;;4971121;28;20004;-65
2021/01/04 05:30:56;;;;;;;17.55;12.73;;;;;;;;;;5000292;28;20042;-65
2021/01/04 05:33:47;;;;;;;19.75;14.02;;;;;;;;;;4999889;28;20030;-65
2021/01/04 05:36:37;;;;;;;16.65;12.68;;;;;;;;;;4998507;28;20407;-65
2021/01/04 05:39:40;;;;;;;16.08;13.68;;;;;;;;;;5000903;28;20034;-64
2021/01/04 05:42:42;;;;;;;16.17;13.65;;;;;;;;;;5002043;28;20034;-64
2021/01/04 05:45:17;;;;;;;19.35;14.73;;;;;;;;;;5000850;28;20038;-65
2021/01/04 05:47:58;;;;;;;15.10;12.82;;;;;;;;;;5000392;28;20033;-64
2021/01/04 05:50:33;;;;;;;15.90;13.15;;;;;;;;;;4999951;28;20046;-65
2021/01/04 05:52:58;;;;;;;18.02;14.15;;;;;;;;;;4999247;28;20033;-65
2021/01/04 05:55:24;;;;;;;19.20;13.80;;;;;;;;;;4999983;28;20049;-64
2021/01/04 05:57:52;;;;;;;17.45;12.93;;;;;;;;;;4998376;28;20049;-65
2021/01/04 06:00:35;;;;;;;18.30;14.73;;;;;;;;;;5000154;28;20037;-64
2021/01/04 06:03:06;;;;;;;14.73;12.63;;;;;;;;;;5000474;28;20096;-65
2021/01/04 06:05:31;;;;;;;16.50;13.88;;;;;;;;;;4997757;28;20488;-64
2021/01/04 06:07:56;;;;;;;19.20;13.07;;;;;;;;;;5002188;28;20770;-65
2021/01/04 06:10:31;;;;;;;18.52;14.40;;;;;;;;;;4998135;28;20101;-65
2021/01/04 06:12:58;;;;;;;16.58;12.77;;;;;;;;;;4999894;28;20039;-65
2021/01/04 06:15:35;;;;;;;17.35;13.43;;;;;;;;;;4999163;28;20120;-64
2021/01/04 06:18:08;;;;;;;17.50;13.45;;;;;;;;;;4998995;28;20048;-65
2021/01/04 06:20:43;;;;;;;23.75;13.75;;;;;;;;;;4996171;28;20073;-65
2021/01/04 06:23:14;;;;;;;18.65;14.38;;;;;;;;;;5000456;28;20099;-65
2021/01/04 06:25:39;;;;;;;15.35;12.80;;;;;;;;;;4999466;28;20045;-65
2021/01/04 06:28:05;;;;;;;16.17;14.07;;;;;;;;;;4998181;28;20452;-65
2021/01/04 06:30:34;;;;;;;16.88;13.85;;;;;;;;;;4996444;28;20485;-65
2021/01/04 06:33:16;;;;;;;17.02;12.93;;;;;;;;;;5000729;28;20022;-65
2021/01/04 06:35:42;;;;;;;18.10;14.63;;;;;;;;;;4999603;28;20113;-65
2021/01/04 06:38:13;;;;;;;21.98;14.45;;;;;;;;;;5000092;28;20124;-64
2021/01/04 06:40:44;;;;;;;18.67;14.70;;;;;;;;;;4996363;28;20117;-64
2021/01/04 06:43:19;;;;;;;15.50;12.80;;;;;;;;;;4999196;28;20038;-63
2021/01/04 06:46:06;;;;;;;20.38;14.32;;;;;;;;;;4997163;28;20113;-63
2021/01/04 06:48:41;;;;;;;14.85;12.20;;;;;;;;;;4995592;28;20053;-63
2021/01/04 06:51:09;;;;;;;20.10;13.30;;;;;;;;;;5001773;28;20114;-64
2021/01/04 06:54:00;;;;;;;19.48;13.77;;;;;;;;;;4999348;28;20038;-64
2021/01/04 06:56:50;;;;;;;18.02;14.55;;;;;;;;;;4998335;28;20034;-64
2021/01/04 06:59:29;;;;;;;18.85;13.90;;;;;;;;;;4999569;28;20041;-65
2021/01/04 07:02:37;;;;;;;19.65;13.82;;;;;;;;;;5000718;28;20073;-65
2021/01/04 07:05:17;;;;;;;17.50;14.02;;;;;;;;;;4988932;28;20050;-65
2021/01/04 07:08:20;;;;;;;18.55;14.10;;;;;;;;;;4999775;28;20034;-65
2021/01/04 07:11:27;;;;;;;16.25;12.82;;;;;;;;;;4998047;28;20030;-64
2021/01/04 07:14:15;;;;;;;18.13;13.63;;;;;;;;;;4988988;28;20045;-64
2021/01/04 07:16:59;;;;;;;18.80;13.85;;;;;;;;;;4998713;28;20057;-64
2021/01/04 07:19:40;;;;;;;18.77;14.50;;;;;;;;;;4996881;28;20524;-64
2021/01/04 07:22:15;;;;;;;18.67;14.50;;;;;;;;;;4998605;28;20042;-63
2021/01/04 07:24:51;;;;;;;19.52;15.23;;;;;;;;;;4995939;28;20179;-64
2021/01/04 07:27:39;;;;;;;17.98;14.27;;;;;;;;;;4995897;28;20116;-64
2021/01/04 07:30:16;;;;;;;18.33;14.10;;;;;;;;;;4999632;28;20599;-65
2021/01/04 07:33:02;;;;;;;20.05;14.95;;;;;;;;;;4995835;28;20114;-66
2021/01/04 07:35:39;;;;;;;17.35;13.85;;;;;;;;;;4996650;28;20480;-64
2021/01/04 07:38:43;;;;;;;17.45;14.02;;;;;;;;;;4996234;28;20038;-65
2021/01/04 07:41:32;;;;;;;17.38;13.52;;;;;;;;;;4981716;28;20093;-63
2021/01/04 07:44:25;;;;;;;17.65;13.45;;;;;;;;;;4997043;28;20049;-63
2021/01/04 07:47:20;;;;;;;18.48;14.05;;;;;;;;;;4995974;28;20124;-63
2021/01/04 07:49:58;;;;;;;17.08;12.93;;;;;;;;;;4998417;28;20030;-63
2021/01/04 07:52:42;;;;;;;19.75;14.60;;;;;;;;;;4996238;28;20043;-64
2021/01/04 07:55:25;;;;;;;17.83;14.13;;;;;;;;;;4996933;28;20042;-64
2021/01/04 07:57:54;;;;;;;17.48;14.15;;;;;;;;;;4997478;28;20780;-64
2021/01/04 08:00:41;;;;;;;20.67;14.10;;;;;;;;;;4998775;28;20416;-64
2021/01/04 08:03:51;;;;;;;21.30;15.35;;;;;;;;;;4997705;28;20065;-66
2021/01/04 08:06:35;;;;;;;25.02;14.63;;;;;;;;;;4998217;28;20088;-64
2021/01/04 08:09:03;;;;;;;17.52;14.07;;;;;;;;;;4996129;28;20053;-65
2021/01/04 08:11:50;;;;;;;23.30;14.50;;;;;;;;;;4995980;28;20030;-64
2021/01/04 08:14:37;;;;;;;21.80;14.70;;;;;;;;;;4996161;28;20108;-64
2021/01/04 08:17:14;;;;;;;17.55;13.50;;;;;;;;;;4997322;28;20036;-64
2021/01/04 08:19:42;;;;;;;19.48;14.07;;;;;;;;;;5000875;28;20477;-64
2021/01/04 08:22:22;;;;;;;22.13;14.48;;;;;;;;;;5001858;28;20454;-65
2021/01/04 08:24:50;;;;;;;20.50;14.88;;;;;;;;;;4999769;28;20428;-65
2021/01/04 08:27:40;;;;;;;18.20;13.85;;;;;;;;;;4994363;28;20038;-65
2021/01/04 08:30:34;;;;;;;18.80;14.30;;;;;;;;;;5000880;28;20492;-65
2021/01/04 08:33:00;;;;;;;23.75;15.90;;;;;;;;;;4926012;28;20036;-65
2021/01/04 08:35:28;;;;;;;17.83;14.20;;;;;;;;;;4999397;28;20564;-65
2021/01/04 08:37:56;;;;;;;22.95;15.05;;;;;;;;;;5000293;28;20095;-65
2021/01/04 08:40:32;;;;;;;17.63;13.77;;;;;;;;;;4997112;28;20129;-65
2021/01/04 08:43:02;;;;;;;20.40;14.32;;;;;;;;;;4999262;28;20038;-65
2021/01/04 08:45:36;;;;;;;17.83;14.20;;;;;;;;;;4997972;28;20124;-65
2021/01/04 08:48:15;;;;;;;20.52;14.75;;;;;;;;;;5000618;28;20046;-65
2021/01/04 08:50:45;;;;;;;19.92;13.82;;;;;;;;;;4997763;28;20562;-65
2021/01/04 08:53:22;;;;;;;18.80;15.07;;;;;;;;;;5000086;28;20576;-65
2021/01/04 08:55:48;;;;;;;23.48;14.63;;;;;;;;;;4999400;28;20030;-66
2021/01/04 08:58:20;;;;;;;21.83;15.45;;;;;;;;;;4999966;28;20042;-66
2021/01/04 09:01:11;;;;;;;22.90;16.05;;;;;;;;;;4995227;28;20070;-65
2021/01/04 09:03:38;;;;;;;18.48;14.15;;;;;;;;;;4997406;28;20141;-66
2021/01/04 09:06:22;;;;;;;20.70;14.38;;;;;;;;;;5000541;28;20370;-66
2021/01/04 09:08:52;;;;;;;20.85;14.18;;;;;;;;;;5000482;28;20056;-65
2021/01/04 09:11:19;;;;;;;19.00;14.63;;;;;;;;;;5001219;28;20033;-66
2021/01/04 09:13:46;;;;;;;21.63;13.60;;;;;;;;;;5002451;28;20026;-65
2021/01/04 09:16:27;;;;;;;19.77;15.02;;;;;;;;;;5002359;28;20029;-66
2021/01/04 09:19:05;;;;;;;24.70;14.88;;;;;;;;;;4999175;28;20037;-66
2021/01/04 09:21:35;;;;;;;17.70;13.40;;;;;;;;;;5000333;28;20038;-66
2021/01/04 09:24:32;;;;;;;21.00;14.18;;;;;;;;;;5000861;28;20432;-66
2021/01/04 09:27:03;;;;;;;18.02;13.27;;;;;;;;;;5001112;28;20049;-66
2021/01/04 09:29:35;;;;;;;;;;;;;;;;;;4999632;28;20053;-66
2021/01/04 09:32:06;;;;;;;16.92;13.32;;;;;;;;;;5001878;28;20750;-66
2021/01/04 09:34:32;;;;;;;;;;;;;;;;;;4999959;28;20041;-66
2021/01/04 09:37:22;;;;;;;16.25;13.60;;;;;;;;;;5002839;28;19917;-66
2021/01/04 09:39:48;;;;;;;18.15;13.55;;;;;;;;;;4992071;28;20066;-65
2021/01/04 09:42:21;;;;;;;19.13;14.40;;;;;;;;;;5000220;28;20544;-66
2021/01/04 09:44:46;;;;;;;19.23;13.43;;;;;;;;;;5000557;28;20485;-66
2021/01/04 09:47:24;;;;;;;17.75;14.02;;;;;;;;;;4999530;28;20065;-65
2021/01/04 09:49:55;;;;;;;17.88;13.80;;;;;;;;;;5000926;28;20049;-66
2021/01/04 09:52:28;;;;;;;18.58;14.05;;;;;;;;;;4999995;28;20095;-66
2021/01/04 09:55:00;;;;;;;20.13;14.95;;;;;;;;;;5001180;28;20109;-66
2021/01/04 09:57:25;;;;;;;16.45;13.27;;;;;;;;;;4999465;28;20033;-66
2021/01/04 09:59:52;;;;;;;18.73;14.07;;;;;;;;;;5001327;28;20373;-66
2021/01/04 10:02:31;;;;;;;18.98;14.00;;;;;;;;;;5000585;28;20041;-66
2021/01/04 10:05:26;;;;;;;18.15;14.07;;;;;;;;;;4999239;28;20037;-66
2021/01/04 10:07:52;;;;;;;18.77;14.10;;;;;;;;;;4999829;28;20396;-66
2021/01/04 10:10:21;;;;;;;17.60;12.93;;;;;;;;;;4998995;28;20083;-66
2021/01/04 10:12:46;;;;;;;18.13;13.07;;;;;;;;;;5000255;28;20050;-66
2021/01/04 10:15:24;;;;;;;16.67;13.02;;;;;;;;;;5000313;28;20548;-66
2021/01/04 10:18:12;;;;;;;18.98;13.48;;;;;;;;;;4999698;28;20026;-66
2021/01/04 10:20:56;;;;;;;21.98;14.55;;;;;;;;;;4999175;28;20117;-66
2021/01/04 10:23:35;;;;;;;21.55;13.95;;;;;;;;;;4999666;28;20321;-65
2021/01/04 10:26:03;;;;;;;17.13;13.18;;;;;;;;;;5000484;28;20076;-65
2021/01/04 10:28:31;;;;;;;17.02;13.80;;;;;;;;;;4998470;28;20084;-65
2021/01/04 10:31:22;;;;;;;19.88;13.43;;;;;;;;;;4998430;28;20044;-65
2021/01/04 10:33:48;;;;;;;;;;;;;;;;;;5000163;28;20511;-65
2021/01/04 10:36:13;;;;;;;18.70;12.95;;;;;;;;;;4999327;28;19979;-65
2021/01/04 10:38:45;;;;;;;23.88;14.23;;;;;;;;;;4998697;28;20381;-65
2021/01/04 10:41:13;;;;;;;19.20;13.43;;;;;;;;;;5000304;28;20120;-65
2021/01/04 10:43:39;;;;;;;18.40;12.77;;;;;;;;;;4998829;28;20465;-65
2021/01/04 10:46:34;;;;;;;16.15;12.95;;;;;;;;;;5000054;28;20128;-66
2021/01/04 10:49:22;;;;;;;16.27;12.50;;;;;;;;;;5001143;28;20041;-65
2021/01/04 10:51:52;;;;;;;16.42;12.05;;;;;;;;;;4999376;28;20064;-65
2021/01/04 10:54:33;;;;;;;14.55;11.80;;;;;;;;;;4998910;28;20128;-65
2021/01/04 10:57:05;;;;;;;17.88;12.05;;;;;;;;;;5000906;28;20095;-66
2021/01/04 10:59:36;;;;;;;20.50;13.07;;;;;;;;;;4998049;28;20092;-66
2021/01/04 11:02:01;;;;;;;22.73;14.23;;;;;;;;;;4997963;28;20128;-66
2021/01/04 11:04:27;;;;;;;16.88;12.05;;;;;;;;;;4997755;28;20126;-65
2021/01/04 11:07:13;;;;;;;19.05;13.30;;;;;;;;;;4996308;28;20386;-65
2021/01/04 11:09:41;;;;;;;18.65;12.95;;;;;;;;;;4995754;28;20132;-65
2021/01/04 11:12:21;;;;;;;17.30;13.38;;;;;;;;;;4996202;28;20440;-65
2021/01/04 11:14:59;;;;;;;16.25;12.73;;;;;;;;;;4996688;28;20061;-66
2021/01/04 11:17:34;;;;;;;21.42;13.68;;;;;;;;;;4997361;28;20121;-66
2021/01/04 11:20:06;;;;;;;15.93;12.13;;;;;;;;;;4997603;28;20131;-66
2021/01/04 11:22:31;;;;;;;17.38;12.77;;;;;;;;;;4994074;28;20026;-66
2021/01/04 11:24:57;;;;;;;18.02;12.75;;;;;;;;;;4999157;28;20052;-66
2021/01/04 11:27:23;;;;;;;20.85;14.00;;;;;;;;;;4997377;28;20118;-64
2021/01/04 11:29:50;;;;;;;15.93;12.23;;;;;;;;;;4997378;28;20070;-66
2021/01/04 11:32:17;;;;;;;17.67;12.75;;;;;;;;;;4997702;28;20041;-66
2021/01/04 11:34:50;;;;;;;16.55;12.38;;;;;;;;;;4997866;28;20077;-66
2021/01/04 11:37:17;;;;;;;17.23;12.15;;;;;;;;;;4999777;28;20069;-65
2021/01/04 11:39:43;;;;;;;34.50;27.27;;;;;;;;;;4998124;28;20477;-65
2021/01/04 11:42:09;;;;;;;14.30;12.43;;;;;;;;;;4997475;28;20145;-67
2021/01/04 11:44:34;;;;;;;14.43;11.60;;;;;;;;;;4996963;28;20073;-65
2021/01/04 11:47:00;;;;;;;16.17;11.75;;;;;;;;;;4997616;28;20076;-66
2021/01/04 11:49:26;;;;;;;19.05;12.75;;;;;;;;;;4996142;28;20465;-65
2021/01/04 11:51:52;;;;;;;14.90;12.15;;;;;;;;;;5000365;28;20476;-66
2021/01/04 11:54:18;;;;;;;14.70;11.38;;;;;;;;;;4999977;28;20121;-66
2021/01/04 11:56:44;;;;;;;15.07;11.48;;;;;;;;;;4998953;28;20150;-66
2021/01/04 11:59:10;;;;;;;17.40;12.02;;;;;;;;;;4999031;28;20025;-65
2021/01/04 12:01:36;;;;;;;16.27;12.18;;;;;;;;;;4996264;28;20038;-66
2021/01/04 12:04:03;;;;;;;16.92;11.43;;;;;;;;;;4999894;28;20069;-66
2021/01/04 12:06:29;;;;;;;17.23;13.07;;;;;;;;;;4993765;28;20042;-65
2021/01/04 12:08:54;;;;;;;19.58;12.05;;;;;;;;;;4999447;28;20479;-66
2021/01/04 12:11:21;;;;;;;15.55;11.95;;;;;;;;;;4996326;28;20029;-66
2021/01/04 12:13:51;;;;;;;14.90;12.20;;;;;;;;;;4999885;28;20653;-66
2021/01/04 12:16:17;;;;;;;19.70;11.93;;;;;;;;;;4998162;28;20033;-66
2021/01/04 12:18:44;;;;;;;14.70;11.60;;;;;;;;;;4990477;28;20034;-66
2021/01/04 12:21:09;;;;;;;13.85;11.43;;;;;;;;;;4995659;28;20034;-67
2021/01/04 12:23:34;;;;;;;16.60;11.50;;;;;;;;;;4996929;28;20061;-65
2021/01/04 12:26:00;;;;;;;16.42;12.82;;;;;;;;;;4999686;28;20100;-66
2021/01/04 12:28:25;;;;;;;17.15;11.88;;;;;;;;;;4995617;28;20121;-66
2021/01/04 12:30:50;;;;;;;14.25;11.32;;;;;;;;;;4997448;28;20025;-66
2021/01/04 12:33:16;;;;;;;14.00;10.57;;;;;;;;;;4997700;28;20044;-65
2021/01/04 12:35:41;;;;;;;17.45;11.30;;;;;;;;;;4998974;28;20030;-66
2021/01/04 12:38:07;;;;;;;13.27;10.48;;;;;;;;;;4998890;28;20045;-66
2021/01/04 12:40:34;;;;;;;16.45;11.52;;;;;;;;;;4995471;28;20113;-64
2021/01/04 12:43:02;;;;;;;14.63;11.40;;;;;;;;;;5000649;28;20432;-66
2021/01/04 12:45:29;;;;;;;15.93;11.80;;;;;;;;;;5012213;28;20429;-66
2021/01/04 12:47:54;;;;;;;18.88;11.38;;;;;;;;;;4999628;28;20448;-65
2021/01/04 12:50:20;;;;;;;14.27;11.30;;;;;;;;;;4997535;28;20141;-66
2021/01/04 12:52:45;;;;;;;15.57;12.30;;;;;;;;;;4997082;28;20054;-66
2021/01/04 12:55:11;;;;;;;16.48;10.70;;;;;;;;;;4999048;28;20038;-66
2021/01/04 12:57:36;;;;;;;17.65;12.50;;;;;;;;;;4997196;28;20066;-65
2021/01/04 13:00:06;;;;;;;15.00;11.20;;;;;;;;;;4999634;28;20116;-65
2021/01/04 13:02:31;;;;;;;13.52;10.57;;;;;;;;;;4996293;28;20060;-65
2021/01/04 13:04:56;;;;;;;16.90;11.23;;;;;;;;;;5002951;28;20053;-65
2021/01/04 13:07:22;;;;;;;14.57;11.90;;;;;;;;;;5014820;28;20526;-66
2021/01/04 13:09:47;;;;;;;13.73;11.07;;;;;;;;;;5001528;28;20034;-66
2021/01/04 13:12:12;;;;;;;15.35;11.73;;;;;;;;;;5001224;28;20104;-66
2021/01/04 13:14:38;;;;;;;15.90;11.93;;;;;;;;;;5000217;28;20121;-66
2021/01/04 13:17:03;;;;;;;13.27;10.55;;;;;;;;;;5001163;28;20033;-66
2021/01/04 13:19:30;;;;;;;17.20;12.35;;;;;;;;;;4996398;28;20089;-66
2021/01/04 13:21:57;;;;;;;13.93;11.07;;;;;;;;;;4999778;28;20096;-66
2021/01/04 13:24:23;;;;;;;13.88;10.68;;;;;;;;;;4994546;28;20041;-66
2021/01/04 13:26:50;;;;;;;20.95;11.55;;;;;;;;;;5002746;28;20038;-66
2021/01/04 13:29:18;;;;;;;13.30;10.82;;;;;;;;;;5002263;28;20034;-66
2021/01/04 13:31:44;;;;;;;15.80;12.13;;;;;;;;;;4999993;28;20231;-67
2021/01/04 13:34:09;;;;;;;16.65;12.05;;;;;;;;;;5002322;28;20033;-64
2021/01/04 13:36:35;;;;;;;14.50;10.73;;;;;;;;;;5001024;28;20057;-65
2021/01/04 13:39:02;;;;;;;15.85;10.73;;;;;;;;;;5001923;28;20116;-65
2021/01/04 13:41:27;;;;;;;14.73;10.90;;;;;;;;;;4999938;28;20730;-65
2021/01/04 13:43:52;;;;;;;16.60;10.52;;;;;;;;;;4999063;28;20036;-65
2021/01/04 13:46:26;;;;;;;12.32;10.05;;;;;;;;;;4999698;28;20469;-64
2021/01/04 13:48:52;;;;;;;16.02;11.43;;;;;;;;;;5001709;28;20041;-66
2021/01/04 13:51:18;;;;;;;17.60;10.95;;;;;;;;;;4999552;28;20033;-65
2021/01/04 13:53:44;;;;;;;15.77;10.98;;;;;;;;;;4998020;28;20045;-66
2021/01/04 13:56:10;;;;;;;13.07;10.27;;;;;;;;;;5002220;28;20057;-66
2021/01/04 13:58:37;;;;;;;17.77;11.43;;;;;;;;;;5000805;28;20109;-65
2021/01/04 14:01:04;;;;;;;15.93;11.70;;;;;;;;;;5002847;28;20069;-66
2021/01/04 14:03:29;;;;;;;15.70;11.55;;;;;;;;;;4999222;28;20096;-65
2021/01/04 14:05:56;;;;;;;16.42;11.90;;;;;;;;;;5002358;28;20042;-65
2021/01/04 14:08:22;;;;;;;16.38;11.23;;;;;;;;;;4997412;28;20038;-65
2021/01/04 14:10:47;;;;;;;15.77;11.95;;;;;;;;;;4999289;28;20034;-65
2021/01/04 14:13:12;;;;;;;16.83;11.20;;;;;;;;;;4994745;28;20472;-66
2021/01/04 14:15:37;;;;;;;15.05;10.55;;;;;;;;;;4997570;28;20042;-66
2021/01/04 14:18:03;;;;;;;14.82;11.15;;;;;;;;;;5000948;28;20048;-65
2021/01/04 14:20:28;;;;;;;16.80;11.25;;;;;;;;;;4997974;28;20470;-66
2021/01/04 14:22:54;;;;;;;15.32;11.07;;;;;;;;;;5000577;28;20595;-66
2021/01/04 14:25:19;;;;;;;15.45;11.18;;;;;;;;;;4999678;28;20034;-65
2021/01/04 14:27:44;;;;;;;16.45;12.23;;;;;;;;;;4999371;28;20053;-65
2021/01/04 14:30:11;;;;;;;13.43;10.45;;;;;;;;;;4999508;28;20029;-65
2021/01/04 14:32:36;;;;;;;15.02;10.90;;;;;;;;;;4994525;28;20057;-64
2021/01/04 14:35:03;;;;;;;14.38;10.73;;;;;;;;;;4991260;28;20076;-64
2021/01/04 14:37:28;;;;;;;14.32;10.90;;;;;;;;;;4995549;28;20034;-64
2021/01/04 14:39:54;;;;;;;15.48;10.32;;;;;;;;;;4993642;28;20592;-65
2021/01/04 14:42:22;;;;;;;13.27;10.68;;;;;;;;;;4996983;28;20034;-66
2021/01/04 14:44:47;;;;;;;17.20;11.02;;;;;;;;;;4999713;28;20026;-66
2021/01/04 14:47:13;;;;;;;14.60;10.82;;;;;;;;;;4993757;28;20339;-66
2021/01/04 14:49:38;;;;;;;12.75;10.27;;;;;;;;;;4990372;28;20096;-66
2021/01/04 14:52:05;;;;;;;19.55;11.23;;;;;;;;;;4999186;28;20105;-66
2021/01/04 14:54:30;;;;;;;11.43;9.65;;;;;;;;;;4993371;28;20030;-65
2021/01/04 14:56:56;;;;;;;15.35;10.70;;;;;;;;;;4996728;28;20350;-66
2021/01/04 14:59:28;;;;;;;15.52;10.63;;;;;;;;;;4998072;28;20041;-67
2021/01/04 15:01:53;;;;;;;15.90;9.75;;;;;;;;;;5000132;28;20026;-67